createdAt,value
2023-03-17T00:02:23.534Z,0.70
2023-03-17T00:05:30.082Z,0.80
2023-03-17T00:08:35.839Z,0.60
2023-03-17T00:11:37.611Z,0.95
2023-03-17T00:14:39.541Z,0.80
2023-03-17T00:17:42.429Z,0.68
2023-03-17T00:20:45.446Z,0.82
2023-03-17T00:23:51.738Z,0.60
2023-03-17T00:26:54.058Z,0.80
2023-03-17T00:29:55.775Z,0.63
2023-03-17T00:32:58.720Z,0.73
2023-03-17T00:36:01.433Z,0.85
2023-03-17T00:45:16.721Z,0.30
2023-03-17T00:48:20.715Z,0.70
2023-03-17T00:51:23.423Z,0.68
2023-03-17T00:54:26.547Z,0.57
2023-03-17T00:57:28.761Z,0.80
2023-03-17T01:00:31.544Z,0.68
2023-03-17T01:03:34.408Z,0.70
2023-03-17T01:06:36.907Z,0.65
2023-03-17T01:09:41.565Z,0.57
2023-03-17T01:12:45.895Z,0.73
2023-03-17T01:15:49.180Z,0.63
2023-03-17T01:18:50.988Z,0.73
2023-03-17T01:21:52.875Z,0.65
2023-03-17T01:24:56.616Z,0.70
2023-03-17T01:27:59.611Z,0.50
2023-03-17T01:31:02.743Z,0.77
2023-03-17T01:34:06.161Z,0.63
2023-03-17T01:37:08.315Z,1.00
2023-03-17T01:40:15.692Z,0.93
2023-03-17T01:43:21.492Z,1.08
2023-03-17T01:46:27.671Z,1.30
2023-03-17T01:49:34.999Z,1.23
2023-03-17T01:52:39.687Z,1.20
2023-03-17T01:55:45.575Z,1.13
2023-03-17T01:58:51.569Z,1.02
2023-03-17T02:01:56.817Z,0.70
2023-03-17T02:05:03.165Z,0.95
2023-03-17T02:08:11.269Z,1.33
2023-03-17T02:11:15.287Z,0.95
2023-03-17T02:14:17.369Z,0.95
2023-03-17T02:17:19.830Z,0.98
2023-03-17T02:21:14.211Z,0.95
2023-03-17T02:24:22.682Z,0.95
2023-03-17T02:27:29.712Z,0.80
2023-03-17T02:30:33.067Z,0.88
2023-03-17T02:33:34.927Z,0.90
2023-03-17T02:36:37.324Z,0.65
2023-03-17T02:39:40.887Z,1.00
2023-03-17T02:42:42.697Z,1.00
2023-03-17T02:45:44.496Z,0.80
2023-03-17T02:48:47.740Z,1.25
2023-03-17T02:51:51.452Z,1.00
2023-03-17T02:54:54.707Z,0.93
2023-03-17T02:57:56.658Z,0.85
2023-03-17T03:00:58.607Z,1.10
2023-03-17T03:04:00.443Z,0.95
2023-03-17T03:07:02.785Z,1.15
2023-03-17T03:10:07.160Z,0.85
2023-03-17T03:13:12.320Z,0.82
2023-03-17T03:16:14.959Z,1.20
2023-03-17T03:19:17.570Z,0.82
2023-03-17T03:22:19.234Z,1.42
2023-03-17T03:25:22.445Z,0.68
2023-03-17T03:28:24.401Z,0.68
2023-03-17T03:31:27.066Z,0.85
2023-03-17T03:34:29.212Z,1.73
2023-03-17T03:37:31.226Z,1.27
2023-03-17T03:40:35.993Z,1.70
2023-03-17T03:43:37.768Z,1.20
2023-03-17T03:46:39.678Z,1.40
2023-03-17T03:49:41.499Z,1.38
2023-03-17T03:52:43.181Z,1.30
2023-03-17T03:55:46.787Z,1.33
2023-03-17T03:58:48.500Z,1.38
2023-03-17T04:01:50.468Z,1.30
2023-03-17T04:04:52.703Z,1.17
2023-03-17T04:07:54.833Z,1.30
2023-03-17T04:10:58.615Z,1.00
2023-03-17T04:14:00.933Z,1.05
2023-03-17T04:17:05.266Z,1.10
2023-03-17T04:20:08.269Z,1.33
2023-03-17T04:23:09.926Z,1.20
2023-03-17T04:26:13.636Z,0.85
2023-03-17T04:29:15.942Z,1.35
2023-03-17T04:32:17.746Z,1.30
2023-03-17T04:35:23.572Z,1.42
2023-03-17T04:38:25.342Z,1.00
2023-03-17T04:41:28.322Z,0.77
2023-03-17T04:44:30.063Z,1.42
2023-03-17T04:47:32.075Z,1.13
2023-03-17T04:50:34.621Z,0.90
2023-03-17T04:53:36.216Z,1.40
2023-03-17T04:56:41.067Z,1.13
2023-03-17T04:59:42.708Z,1.38
2023-03-17T05:02:44.401Z,0.95
2023-03-17T05:05:47.081Z,0.80
2023-03-17T05:08:49.196Z,0.80
2023-03-17T05:11:52.615Z,0.70
2023-03-17T05:14:54.378Z,1.40
2023-03-17T05:17:56.602Z,1.20
2023-03-17T05:20:58.349Z,1.33
2023-03-17T05:24:02.326Z,1.30
2023-03-17T05:27:05.621Z,1.70
2023-03-17T05:30:08.938Z,1.08
2023-03-17T05:33:10.957Z,1.35
2023-03-17T05:36:13.412Z,1.83
2023-03-17T05:39:17.550Z,1.80
2023-03-17T05:42:20.693Z,1.42
2023-03-17T05:45:22.841Z,1.40
2023-03-17T05:48:25.269Z,1.80
2023-03-17T05:51:27.723Z,1.33
2023-03-17T05:54:29.645Z,1.30
2023-03-17T05:57:33.005Z,1.33
2023-03-17T06:00:38.060Z,1.35
2023-03-17T06:03:40.046Z,1.17
2023-03-17T06:06:41.715Z,1.02
2023-03-17T06:09:43.493Z,1.80
2023-03-17T06:12:47.266Z,1.13
2023-03-17T06:15:51.783Z,1.45
2023-03-17T06:18:53.670Z,1.00
2023-03-17T06:21:55.949Z,1.33
2023-03-17T06:25:04.615Z,1.10
2023-03-17T06:28:07.652Z,1.50
2023-03-17T06:31:09.447Z,1.27
2023-03-17T06:34:12.044Z,1.35
2023-03-17T06:37:13.860Z,1.38
2023-03-17T06:40:16.233Z,1.48
2023-03-17T06:43:19.926Z,1.30
2023-03-17T06:46:21.620Z,1.90
2023-03-17T06:49:23.256Z,1.58
2023-03-17T06:52:25.267Z,1.85
2023-03-17T06:55:27.456Z,1.25
2023-03-17T06:58:33.505Z,1.30
2023-03-17T07:01:35.313Z,2.20
2023-03-17T07:04:38.060Z,1.10
2023-03-17T07:07:39.951Z,2.40
2023-03-17T07:10:42.176Z,1.95
2023-03-17T07:13:46.287Z,2.20
2023-03-17T07:16:48.498Z,2.22
2023-03-17T07:19:50.315Z,1.70
2023-03-17T07:22:52.277Z,1.80
2023-03-17T07:25:53.989Z,1.77
2023-03-17T07:28:57.157Z,1.45
2023-03-17T07:31:58.954Z,1.33
2023-03-17T07:35:00.842Z,1.33
2023-03-17T07:38:03.058Z,1.67
2023-03-17T07:41:09.651Z,1.80
2023-03-17T07:44:13.398Z,1.73
2023-03-17T07:47:15.039Z,2.28
2023-03-17T07:50:17.002Z,1.90
2023-03-17T07:53:19.138Z,2.05
2023-03-17T07:56:21.389Z,1.90
2023-03-17T07:59:24.461Z,2.00
2023-03-17T08:02:26.237Z,1.80
2023-03-17T08:05:28.280Z,1.40
2023-03-17T08:08:30.521Z,1.42
2023-03-17T08:11:33.186Z,2.28
2023-03-17T08:14:36.601Z,1.50
2023-03-17T08:17:39.621Z,1.15
2023-03-17T08:20:42.103Z,1.83
2023-03-17T08:23:43.927Z,1.60
2023-03-17T08:26:48.075Z,1.58
2023-03-17T08:29:51.640Z,1.60
2023-03-17T08:32:54.607Z,1.98
2023-03-17T08:35:56.487Z,1.48
2023-03-17T08:38:59.041Z,2.30
2023-03-17T08:42:00.901Z,1.70
2023-03-17T08:45:06.850Z,1.73
2023-03-17T08:51:10.174Z,1.85
2023-03-17T08:54:12.793Z,2.03
2023-03-17T08:57:15.808Z,1.75
2023-03-17T09:00:21.029Z,2.65
2023-03-17T09:03:25.400Z,2.00
2023-03-17T09:06:27.684Z,2.40
2023-03-17T09:09:31.192Z,1.98
2023-03-17T09:12:34.229Z,2.22
2023-03-17T09:15:38.842Z,2.20
2023-03-17T09:18:41.292Z,2.55
2023-03-17T09:21:42.929Z,1.25
2023-03-17T09:24:45.568Z,2.17
2023-03-17T09:27:47.459Z,1.70
2023-03-17T09:30:50.947Z,2.20
2023-03-17T09:33:53.391Z,2.10
2023-03-17T09:36:55.233Z,1.67
2023-03-17T09:39:57.933Z,1.85
2023-03-17T09:43:16.651Z,2.40
2023-03-17T09:46:35.070Z,2.45
2023-03-17T09:49:42.421Z,2.50
2023-03-17T09:52:44.854Z,3.17
2023-03-17T09:55:51.956Z,1.92
2023-03-17T09:58:58.013Z,2.00
2023-03-17T10:02:01.707Z,2.30
2023-03-17T10:05:13.970Z,2.10
2023-03-17T10:08:31.385Z,2.08
2023-03-17T10:11:40.600Z,2.45
2023-03-17T10:14:54.303Z,2.42
2023-03-17T10:17:58.575Z,2.28
2023-03-17T10:21:04.396Z,1.65
2023-03-17T10:24:06.922Z,2.50
2023-03-17T10:27:13.626Z,2.33
2023-03-17T10:30:17.417Z,1.33
2023-03-17T10:33:21.694Z,2.42
2023-03-17T10:36:34.869Z,2.35
2023-03-17T10:39:45.959Z,2.03
2023-03-17T10:42:52.962Z,2.17
2023-03-17T10:45:58.991Z,1.67
2023-03-17T10:49:07.845Z,1.50
2023-03-17T10:52:21.165Z,1.30
2023-03-17T10:55:26.499Z,2.05
2023-03-17T10:58:41.713Z,1.52
2023-03-17T11:01:49.846Z,1.92
2023-03-17T11:04:59.405Z,1.45
2023-03-17T11:08:10.368Z,1.33
2023-03-17T11:11:24.629Z,2.22
2023-03-17T11:14:30.385Z,1.95
2023-03-17T11:17:39.798Z,1.80
2023-03-17T11:20:50.683Z,1.90
2023-03-17T11:26:59.281Z,1.90
2023-03-17T11:30:27.852Z,1.40
2023-03-17T11:33:36.558Z,1.50
2023-03-17T11:36:50.390Z,1.85
2023-03-17T11:40:01.872Z,1.73
2023-03-17T11:43:23.348Z,2.13
2023-03-17T11:46:29.018Z,2.78
2023-03-17T11:49:36.108Z,1.55
2023-03-17T11:52:50.611Z,1.65
2023-03-17T11:55:58.052Z,1.48
2023-03-17T11:59:05.232Z,1.50
2023-03-17T12:02:20.392Z,1.98
2023-03-17T12:05:25.067Z,1.42
2023-03-17T12:08:37.749Z,1.90
2023-03-17T12:11:43.317Z,1.65
2023-03-17T12:14:52.267Z,1.63
2023-03-17T12:17:57.769Z,1.88
2023-03-17T12:21:02.074Z,2.13
2023-03-17T12:24:12.808Z,1.55
2023-03-17T12:30:29.098Z,1.27
2023-03-17T12:33:38.877Z,1.33
2023-03-17T12:36:41.573Z,1.50
2023-03-17T12:39:50.307Z,1.10
2023-03-17T12:43:01.676Z,1.70
2023-03-17T12:46:42.218Z,1.73
2023-03-17T12:50:05.880Z,1.10
2023-03-17T12:53:24.704Z,1.13
2023-03-17T12:56:29.997Z,1.13
2023-03-17T12:59:35.112Z,1.70
2023-03-17T13:02:39.175Z,1.30
2023-03-17T13:05:46.697Z,1.33
2023-03-17T13:08:51.706Z,1.50
2023-03-17T13:11:55.764Z,1.42
2023-03-17T13:14:58.570Z,1.40
2023-03-17T13:18:49.765Z,1.60
2023-03-17T13:22:13.771Z,1.77
2023-03-17T13:25:31.336Z,1.45
2023-03-17T13:28:42.598Z,1.23
2023-03-17T13:31:44.859Z,1.35
2023-03-17T13:34:50.545Z,1.08
2023-03-17T13:38:12.908Z,1.27
2023-03-17T13:41:32.307Z,1.20
2023-03-17T13:44:47.667Z,1.45
2023-03-17T13:47:51.385Z,1.40
2023-03-17T13:50:59.513Z,1.52
2023-03-17T13:54:09.185Z,1.10
2023-03-17T13:57:26.910Z,1.30
2023-03-17T14:00:33.031Z,1.17
2023-03-17T14:03:40.779Z,1.23
2023-03-17T14:06:42.675Z,1.42
2023-03-17T14:09:45.329Z,1.90
2023-03-17T14:12:58.394Z,1.90
2023-03-17T14:16:04.814Z,1.55
2023-03-17T14:19:18.000Z,1.67
2023-03-17T14:22:22.173Z,2.00
2023-03-17T14:25:26.579Z,1.65
2023-03-17T14:28:33.305Z,1.45
2023-03-17T14:31:35.281Z,1.50
2023-03-17T14:34:42.942Z,1.52
2023-03-17T14:37:45.424Z,1.27
2023-03-17T14:40:47.878Z,1.90
2023-03-17T14:43:52.439Z,1.50
2023-03-17T14:47:02.254Z,1.70
2023-03-17T14:50:18.126Z,1.58
2023-03-17T14:53:20.488Z,1.98
2023-03-17T14:56:24.113Z,1.52
2023-03-17T14:59:31.911Z,1.60
2023-03-17T15:02:35.486Z,1.90
2023-03-17T15:05:39.731Z,1.65
2023-03-17T15:08:46.572Z,1.90
2023-03-17T15:11:49.142Z,1.77
2023-03-17T15:14:54.321Z,1.80
2023-03-17T15:17:57.841Z,1.65
2023-03-17T15:21:02.593Z,2.00
2023-03-17T15:24:20.098Z,2.13
2023-03-17T15:27:21.756Z,2.45
2023-03-17T15:30:29.486Z,2.05
2023-03-17T15:33:39.259Z,1.70
2023-03-17T15:36:43.564Z,1.80
2023-03-17T15:39:45.698Z,1.73
2023-03-17T15:42:47.597Z,1.55
2023-03-17T15:45:55.280Z,2.15
2023-03-17T15:48:56.991Z,2.00
2023-03-17T15:51:58.753Z,1.80
2023-03-17T15:55:00.661Z,2.35
2023-03-17T15:58:02.702Z,2.33
2023-03-17T16:01:06.481Z,2.22
2023-03-17T16:04:09.086Z,2.42
2023-03-17T16:07:12.266Z,2.45
2023-03-17T16:10:18.494Z,2.20
2023-03-17T16:13:20.632Z,2.00
2023-03-17T16:16:30.246Z,2.03
2023-03-17T16:19:32.872Z,1.90
2023-03-17T16:22:38.149Z,1.75
2023-03-17T16:25:40.026Z,2.10
2023-03-17T16:28:42.298Z,1.80
2023-03-17T16:31:51.683Z,1.83
2023-03-17T16:34:55.046Z,1.30
2023-03-17T16:37:56.899Z,1.83
2023-03-17T16:41:01.131Z,1.60
2023-03-17T16:44:03.808Z,1.77
2023-03-17T16:47:10.068Z,1.80
2023-03-17T16:50:16.439Z,1.65
2023-03-17T16:53:18.326Z,1.42
2023-03-17T16:56:22.590Z,1.45
2023-03-17T16:59:28.212Z,1.45
2023-03-17T17:02:31.579Z,1.30
2023-03-17T17:05:34.590Z,1.70
2023-03-17T17:08:37.261Z,1.20
2023-03-17T17:11:39.019Z,1.40
2023-03-17T17:14:40.658Z,1.10
2023-03-17T17:17:46.624Z,1.10
2023-03-17T17:20:49.241Z,1.40
2023-03-17T17:23:53.030Z,1.10
2023-03-17T17:26:55.188Z,1.30
2023-03-17T17:29:57.365Z,1.20
2023-03-17T17:33:01.093Z,1.52
2023-03-17T17:36:04.356Z,1.48
2023-03-17T17:39:06.676Z,1.20
2023-03-17T17:42:10.869Z,2.17
2023-03-17T17:45:13.557Z,2.25
2023-03-17T17:48:18.192Z,2.25
2023-03-17T17:54:21.843Z,1.73
2023-03-17T17:57:23.665Z,1.10
2023-03-17T18:00:27.484Z,1.58
2023-03-17T18:03:32.129Z,1.77
2023-03-17T18:09:36.025Z,1.60
2023-03-17T18:12:38.009Z,2.47
2023-03-17T18:15:39.994Z,2.17
2023-03-17T18:18:45.588Z,2.50
2023-03-17T18:21:47.661Z,2.35
2023-03-17T18:24:49.856Z,2.28
2023-03-17T18:27:51.510Z,2.25
2023-03-17T18:30:53.964Z,2.22
2023-03-17T18:33:59.802Z,2.45
2023-03-17T18:37:02.432Z,2.80
2023-03-17T18:40:14.343Z,2.72
2023-03-17T18:43:17.204Z,2.10
2023-03-17T18:46:18.940Z,2.40
2023-03-17T18:49:25.134Z,1.80
2023-03-17T18:52:31.349Z,2.08
2023-03-17T18:55:33.187Z,2.00
2023-03-17T18:58:36.288Z,1.80
2023-03-17T19:01:38.305Z,2.00
2023-03-17T19:04:46.013Z,1.85
2023-03-17T19:07:47.958Z,1.80
2023-03-17T19:10:50.395Z,2.15
2023-03-17T19:13:53.713Z,1.70
2023-03-17T19:16:55.565Z,2.40
2023-03-17T19:19:59.156Z,2.28
2023-03-17T19:23:01.199Z,3.08
2023-03-17T19:26:04.619Z,3.10
2023-03-17T19:29:09.700Z,2.92
2023-03-17T19:32:12.098Z,2.42
2023-03-17T19:35:15.360Z,2.80
2023-03-17T19:38:17.274Z,2.67
2023-03-17T19:41:19.100Z,2.90
2023-03-17T19:44:22.722Z,2.30
2023-03-17T19:47:24.865Z,2.83
2023-03-17T19:50:28.174Z,2.95
2023-03-17T19:53:29.856Z,3.17
2023-03-17T19:56:32.120Z,3.47
2023-03-17T19:59:33.912Z,5.82
2023-03-17T20:02:35.896Z,4.63
2023-03-17T20:05:39.420Z,3.97
2023-03-17T20:08:42.916Z,4.43
2023-03-17T20:11:44.587Z,4.78
2023-03-17T20:14:46.958Z,4.25
2023-03-17T20:17:49.057Z,4.55
2023-03-17T20:20:53.222Z,4.38
2023-03-17T20:23:55.192Z,4.35
2023-03-17T20:26:58.272Z,4.57
2023-03-17T20:30:00.172Z,3.30
2023-03-17T20:33:02.032Z,3.53
2023-03-17T20:36:06.237Z,3.42
2023-03-17T20:39:09.273Z,3.28
2023-03-17T20:42:14.504Z,2.75
2023-03-17T20:45:16.490Z,2.45
2023-03-17T20:48:18.273Z,2.60
2023-03-17T20:51:21.619Z,2.70
2023-03-17T20:54:23.496Z,2.35
2023-03-17T20:57:25.206Z,2.13
2023-03-17T21:00:27.232Z,3.08
2023-03-17T21:03:29.858Z,3.10
2023-03-17T21:06:34.226Z,2.90
2023-03-17T21:09:36.049Z,3.17
2023-03-17T21:12:38.125Z,2.72
2023-03-17T21:15:41.042Z,2.88
2023-03-17T21:18:42.785Z,3.22
2023-03-17T21:21:46.016Z,2.42
2023-03-17T21:24:47.709Z,3.05
2023-03-17T21:27:50.356Z,2.17
2023-03-17T21:30:52.207Z,2.85
2023-03-17T21:33:53.922Z,3.03
2023-03-17T21:36:59.160Z,2.25
2023-03-17T21:40:00.860Z,2.55
2023-03-17T21:43:02.860Z,2.60
2023-03-17T21:46:05.393Z,1.70
2023-03-17T21:49:07.021Z,1.92
2023-03-17T21:52:10.696Z,2.55
2023-03-17T21:55:12.795Z,2.25
2023-03-17T21:58:14.527Z,2.58
2023-03-17T22:01:16.646Z,1.73
2023-03-17T22:04:18.628Z,2.35
2023-03-17T22:07:22.175Z,1.80
2023-03-17T22:10:23.979Z,2.13
2023-03-17T22:13:26.028Z,2.03
2023-03-17T22:16:28.010Z,2.03
2023-03-17T22:19:31.823Z,1.50
2023-03-17T22:22:35.937Z,1.55
2023-03-17T22:25:37.670Z,1.85
2023-03-17T22:28:40.619Z,1.63
2023-03-17T22:31:42.726Z,1.60
2023-03-17T22:34:45.199Z,1.67
2023-03-17T22:37:48.395Z,1.83
2023-03-17T22:41:00.107Z,1.88
2023-03-17T22:44:02.528Z,1.27
2023-03-17T22:47:04.938Z,1.90
2023-03-17T22:50:07.972Z,1.98
2023-03-17T22:53:11.454Z,1.63
2023-03-17T22:56:15.774Z,1.60
2023-03-17T22:59:18.971Z,1.80
2023-03-17T23:02:21.205Z,1.60
2023-03-17T23:05:23.042Z,1.90
2023-03-17T23:08:29.331Z,1.73
2023-03-17T23:11:31.063Z,2.38
2023-03-17T23:14:32.734Z,1.90
2023-03-17T23:17:36.912Z,1.73
2023-03-17T23:20:42.544Z,1.98
2023-03-17T23:23:45.674Z,1.75
2023-03-17T23:26:47.413Z,1.55
2023-03-17T23:29:49.133Z,1.30
2023-03-17T23:32:51.025Z,1.50
2023-03-17T23:35:53.005Z,2.00
2023-03-17T23:38:56.677Z,1.90
2023-03-17T23:41:58.830Z,2.15
2023-03-17T23:45:00.627Z,2.00
2023-03-17T23:48:02.952Z,1.55
2023-03-17T23:51:05.140Z,1.58
2023-03-17T23:54:09.350Z,1.70
2023-03-17T23:57:12.205Z,1.70
